sensor_id;sensor_type;location;lat;lon;timestamp;temperature;humidity
6788;DHT22;3431;47.966;10.268;2023-05-10T00:00:20;11.80;99.90
6788;DHT22;3431;47.966;10.268;2023-05-10T00:00:43;11.90;99.90
6788;DHT22;3431;47.966;10.268;2023-05-10T00:01:05;11.90;99.90
6788;DHT22;3431;47.966;10.268;2023-05-10T00:01:26;11.80;99.90
6788;DHT22;3431;47.966;10.268;2023-05-10T00:01:48;11.90;99.90
6788;DHT22;3431;47.966;10.268;2023-05-10T00:02:11;11.80;99.90
6788;DHT22;3431;47.966;10.268;2023-05-10T00:02:32;11.90;99.90
6788;DHT22;3431;47.966;10.268;2023-05-10T00:02:54;11.80;99.90
6788;DHT22;3431;47.966;10.268;2023-05-10T00:03:15;11.80;99.90
6788;DHT22;3431;47.966;10.268;2023-05-10T00:03:38;11.80;99.90
6788;DHT22;3431;47.966;10.268;2023-05-10T00:04:00;11.80;99.90
6788;DHT22;3431;47.966;10.268;2023-05-10T00:04:21;11.80;99.90
6788;DHT22;3431;47.966;10.268;2023-05-10T00:04:43;11.80;99.90
6788;DHT22;3431;47.966;10.268;2023-05-10T00:05:06;11.80;99.90
6788;DHT22;3431;47.966;10.268;2023-05-10T00:05:28;11.80;99.90
6788;DHT22;3431;47.966;10.268;2023-05-10T00:05:49;11.80;99.90
6788;DHT22;3431;47.966;10.268;2023-05-10T00:06:11;11.80;99.90
6788;DHT22;3431;47.966;10.268;2023-05-10T00:06:33;11.80;99.90
6788;DHT22;3431;47.966;10.268;2023-05-10T00:06:55;11.80;99.90
6788;DHT22;3431;47.966;10.268;2023-05-10T00:07:17;11.80;99.90
6788;DHT22;3431;47.966;10.268;2023-05-10T00:07:39;11.80;99.90
6788;DHT22;3431;47.966;10.268;2023-05-10T00:08:00;11.80;99.90
6788;DHT22;3431;47.966;10.268;2023-05-10T00:08:23;11.80;99.90
6788;DHT22;3431;47.966;10.268;2023-05-10T00:08:45;11.80;99.90
6788;DHT22;3431;47.966;10.268;2023-05-10T00:09:07;11.80;99.90
6788;DHT22;3431;47.966;10.268;2023-05-10T00:09:28;11.80;99.90
6788;DHT22;3431;47.966;10.268;2023-05-10T00:09:50;11.80;99.90
6788;DHT22;3431;47.966;10.268;2023-05-10T00:10:12;11.80;99.90
6788;DHT22;3431;47.966;10.268;2023-05-10T00:10:34;11.80;99.90
6788;DHT22;3431;47.966;10.268;2023-05-10T00:10:55;11.80;99.90
6788;DHT22;3431;47.966;10.268;2023-05-10T00:11:17;11.80;99.90
6788;DHT22;3431;47.966;10.268;2023-05-10T00:11:40;11.80;99.90
6788;DHT22;3431;47.966;10.268;2023-05-10T00:12:03;11.80;99.90
6788;DHT22;3431;47.966;10.268;2023-05-10T00:12:24;11.80;99.90
6788;DHT22;3431;47.966;10.268;2023-05-10T00:12:46;11.80;99.90
6788;DHT22;3431;47.966;10.268;2023-05-10T00:13:07;11.80;99.90
6788;DHT22;3431;47.966;10.268;2023-05-10T00:13:29;11.80;99.90
6788;DHT22;3431;47.966;10.268;2023-05-10T00:13:51;11.80;99.90
6788;DHT22;3431;47.966;10.268;2023-05-10T00:14:13;11.80;99.90
6788;DHT22;3431;47.966;10.268;2023-05-10T00:14:34;11.80;99.90
6788;DHT22;3431;47.966;10.268;2023-05-10T00:14:56;11.80;99.90
6788;DHT22;3431;47.966;10.268;2023-05-10T00:15:18;11.80;99.90
6788;DHT22;3431;47.966;10.268;2023-05-10T00:15:40;11.80;99.90
6788;DHT22;3431;47.966;10.268;2023-05-10T00:16:02;11.80;99.90
6788;DHT22;3431;47.966;10.268;2023-05-10T00:16:23;11.80;99.90
6788;DHT22;3431;47.966;10.268;2023-05-10T00:16:45;11.80;99.90
6788;DHT22;3431;47.966;10.268;2023-05-10T00:17:08;11.80;99.90
6788;DHT22;3431;47.966;10.268;2023-05-10T00:17:29;11.80;99.90
6788;DHT22;3431;47.966;10.268;2023-05-10T00:17:51;11.80;99.90
6788;DHT22;3431;47.966;10.268;2023-05-10T00:18:12;11.80;99.90
6788;DHT22;3431;47.966;10.268;2023-05-10T00:18:34;11.70;99.90
6788;DHT22;3431;47.966;10.268;2023-05-10T00:18:56;11.70;99.90
6788;DHT22;3431;47.966;10.268;2023-05-10T00:19:18;11.80;99.90
6788;DHT22;3431;47.966;10.268;2023-05-10T00:19:39;11.70;99.90
6788;DHT22;3431;47.966;10.268;2023-05-10T00:20:01;11.70;99.90
6788;DHT22;3431;47.966;10.268;2023-05-10T00:20:26;11.70;99.90
6788;DHT22;3431;47.966;10.268;2023-05-10T00:20:47;11.80;99.90
6788;DHT22;3431;47.966;10.268;2023-05-10T00:21:09;11.70;99.90
6788;DHT22;3431;47.966;10.268;2023-05-10T00:21:31;11.70;99.90
6788;DHT22;3431;47.966;10.268;2023-05-10T00:21:54;11.70;99.90
6788;DHT22;3431;47.966;10.268;2023-05-10T00:22:16;11.70;99.90
6788;DHT22;3431;47.966;10.268;2023-05-10T00:22:38;11.70;99.90
6788;DHT22;3431;47.966;10.268;2023-05-10T00:22:59;11.70;99.90
6788;DHT22;3431;47.966;10.268;2023-05-10T00:23:21;11.70;99.90
6788;DHT22;3431;47.966;10.268;2023-05-10T00:23:43;11.70;99.90
6788;DHT22;3431;47.966;10.268;2023-05-10T00:24:05;11.70;99.90
6788;DHT22;3431;47.966;10.268;2023-05-10T00:24:27;11.70;99.90
6788;DHT22;3431;47.966;10.268;2023-05-10T00:24:48;11.70;99.90
6788;DHT22;3431;47.966;10.268;2023-05-10T00:25:11;11.70;99.90
6788;DHT22;3431;47.966;10.268;2023-05-10T00:25:32;11.70;99.90
6788;DHT22;3431;47.966;10.268;2023-05-10T00:25:54;11.70;99.90
6788;DHT22;3431;47.966;10.268;2023-05-10T00:26:15;11.70;99.90
6788;DHT22;3431;47.966;10.268;2023-05-10T00:26:42;11.70;99.90
6788;DHT22;3431;47.966;10.268;2023-05-10T00:27:05;11.70;99.90
6788;DHT22;3431;47.966;10.268;2023-05-10T00:27:26;11.70;99.90
6788;DHT22;3431;47.966;10.268;2023-05-10T00:27:48;11.70;99.90
6788;DHT22;3431;47.966;10.268;2023-05-10T00:28:09;11.70;99.90
6788;DHT22;3431;47.966;10.268;2023-05-10T00:28:32;11.70;99.90
6788;DHT22;3431;47.966;10.268;2023-05-10T00:28:54;11.70;99.90
6788;DHT22;3431;47.966;10.268;2023-05-10T00:29:15;11.70;99.90
6788;DHT22;3431;47.966;10.268;2023-05-10T00:29:37;11.70;99.90
6788;DHT22;3431;47.966;10.268;2023-05-10T00:29:58;11.70;99.90
6788;DHT22;3431;47.966;10.268;2023-05-10T00:30:21;11.70;99.90
6788;DHT22;3431;47.966;10.268;2023-05-10T00:30:42;11.70;99.90
6788;DHT22;3431;47.966;10.268;2023-05-10T00:31:04;11.70;99.90
6788;DHT22;3431;47.966;10.268;2023-05-10T00:31:26;11.70;99.90
6788;DHT22;3431;47.966;10.268;2023-05-10T00:31:48;11.70;99.90
6788;DHT22;3431;47.966;10.268;2023-05-10T00:32:10;11.70;99.90
6788;DHT22;3431;47.966;10.268;2023-05-10T00:32:32;11.70;99.90
6788;DHT22;3431;47.966;10.268;2023-05-10T00:32:53;11.70;99.90
6788;DHT22;3431;47.966;10.268;2023-05-10T00:33:16;11.70;99.90
6788;DHT22;3431;47.966;10.268;2023-05-10T00:33:37;11.70;99.90
6788;DHT22;3431;47.966;10.268;2023-05-10T00:33:59;11.70;99.90
6788;DHT22;3431;47.966;10.268;2023-05-10T00:34:20;11.70;99.90
6788;DHT22;3431;47.966;10.268;2023-05-10T00:34:43;11.70;99.90
6788;DHT22;3431;47.966;10.268;2023-05-10T00:35:05;11.70;99.90
6788;DHT22;3431;47.966;10.268;2023-05-10T00:35:27;11.70;99.90
6788;DHT22;3431;47.966;10.268;2023-05-10T00:35:49;11.70;99.90
6788;DHT22;3431;47.966;10.268;2023-05-10T00:36:11;11.70;99.90
6788;DHT22;3431;47.966;10.268;2023-05-10T00:36:33;11.70;99.90
6788;DHT22;3431;47.966;10.268;2023-05-10T00:36:55;11.70;99.90
6788;DHT22;3431;47.966;10.268;2023-05-10T00:37:17;11.70;99.90
6788;DHT22;3431;47.966;10.268;2023-05-10T00:37:38;11.70;99.90
6788;DHT22;3431;47.966;10.268;2023-05-10T00:38:01;11.70;99.90
6788;DHT22;3431;47.966;10.268;2023-05-10T00:38:22;11.70;99.90
6788;DHT22;3431;47.966;10.268;2023-05-10T00:38:44;11.70;99.90
6788;DHT22;3431;47.966;10.268;2023-05-10T00:39:06;11.70;99.90
6788;DHT22;3431;47.966;10.268;2023-05-10T00:39:29;11.70;99.90
6788;DHT22;3431;47.966;10.268;2023-05-10T00:39:50;11.70;99.90
6788;DHT22;3431;47.966;10.268;2023-05-10T00:40:12;11.70;99.90
6788;DHT22;3431;47.966;10.268;2023-05-10T00:40:35;11.70;99.90
6788;DHT22;3431;47.966;10.268;2023-05-10T00:41:00;11.80;99.90
6788;DHT22;3431;47.966;10.268;2023-05-10T00:41:25;11.70;99.90
6788;DHT22;3431;47.966;10.268;2023-05-10T00:41:48;11.70;99.90
6788;DHT22;3431;47.966;10.268;2023-05-10T00:42:10;11.70;99.90
6788;DHT22;3431;47.966;10.268;2023-05-10T00:42:32;11.70;99.90
6788;DHT22;3431;47.966;10.268;2023-05-10T00:42:54;11.70;99.90
6788;DHT22;3431;47.966;10.268;2023-05-10T00:43:17;11.70;99.90
6788;DHT22;3431;47.966;10.268;2023-05-10T00:43:38;11.70;99.90
6788;DHT22;3431;47.966;10.268;2023-05-10T00:44:00;11.70;99.90
6788;DHT22;3431;47.966;10.268;2023-05-10T00:44:23;11.70;99.90
6788;DHT22;3431;47.966;10.268;2023-05-10T00:44:46;11.70;99.90
6788;DHT22;3431;47.966;10.268;2023-05-10T00:45:08;11.70;99.90
6788;DHT22;3431;47.966;10.268;2023-05-10T00:45:31;11.70;99.90
6788;DHT22;3431;47.966;10.268;2023-05-10T00:45:53;11.70;99.90
6788;DHT22;3431;47.966;10.268;2023-05-10T00:46:15;11.50;99.90
6788;DHT22;3431;47.966;10.268;2023-05-10T00:46:38;11.70;99.90
6788;DHT22;3431;47.966;10.268;2023-05-10T00:47:00;11.70;99.90
6788;DHT22;3431;47.966;10.268;2023-05-10T00:47:22;11.70;99.90
6788;DHT22;3431;47.966;10.268;2023-05-10T00:47:44;11.70;99.90
6788;DHT22;3431;47.966;10.268;2023-05-10T00:48:06;11.70;99.90
6788;DHT22;3431;47.966;10.268;2023-05-10T00:48:28;11.70;99.90
6788;DHT22;3431;47.966;10.268;2023-05-10T00:48:50;11.70;99.90
6788;DHT22;3431;47.966;10.268;2023-05-10T00:49:12;11.70;99.90
6788;DHT22;3431;47.966;10.268;2023-05-10T00:49:35;11.70;99.90
6788;DHT22;3431;47.966;10.268;2023-05-10T00:49:56;11.70;99.90
6788;DHT22;3431;47.966;10.268;2023-05-10T00:50:18;11.70;99.90
6788;DHT22;3431;47.966;10.268;2023-05-10T00:50:40;11.70;99.90
6788;DHT22;3431;47.966;10.268;2023-05-10T00:51:03;11.70;99.90
6788;DHT22;3431;47.966;10.268;2023-05-10T00:51:25;11.70;99.90
6788;DHT22;3431;47.966;10.268;2023-05-10T00:51:46;11.70;99.90
6788;DHT22;3431;47.966;10.268;2023-05-10T00:52:08;11.70;99.90
6788;DHT22;3431;47.966;10.268;2023-05-10T00:52:31;11.70;99.90
6788;DHT22;3431;47.966;10.268;2023-05-10T00:52:53;11.70;99.90
6788;DHT22;3431;47.966;10.268;2023-05-10T00:53:16;11.70;99.90
6788;DHT22;3431;47.966;10.268;2023-05-10T00:53:38;11.70;99.90
6788;DHT22;3431;47.966;10.268;2023-05-10T00:54:01;11.70;99.90
6788;DHT22;3431;47.966;10.268;2023-05-10T00:54:23;11.70;99.90
6788;DHT22;3431;47.966;10.268;2023-05-10T00:54:46;11.70;99.90
6788;DHT22;3431;47.966;10.268;2023-05-10T00:55:09;11.70;99.90
6788;DHT22;3431;47.966;10.268;2023-05-10T00:55:32;11.70;99.90
6788;DHT22;3431;47.966;10.268;2023-05-10T00:55:54;11.70;99.90
6788;DHT22;3431;47.966;10.268;2023-05-10T00:56:15;11.70;99.90
6788;DHT22;3431;47.966;10.268;2023-05-10T00:56:37;11.70;99.90
6788;DHT22;3431;47.966;10.268;2023-05-10T00:57:01;11.70;99.90
6788;DHT22;3431;47.966;10.268;2023-05-10T00:57:24;11.70;99.90
6788;DHT22;3431;47.966;10.268;2023-05-10T00:57:47;11.70;99.90
6788;DHT22;3431;47.966;10.268;2023-05-10T00:58:08;11.70;99.90
6788;DHT22;3431;47.966;10.268;2023-05-10T00:58:31;11.70;99.90
6788;DHT22;3431;47.966;10.268;2023-05-10T00:58:52;11.70;99.90
6788;DHT22;3431;47.966;10.268;2023-05-10T00:59:15;11.60;99.90
6788;DHT22;3431;47.966;10.268;2023-05-10T00:59:37;11.60;99.90
6788;DHT22;3431;47.966;10.268;2023-05-10T01:00:02;11.70;99.90
6788;DHT22;3431;47.966;10.268;2023-05-10T01:00:24;11.60;99.90
6788;DHT22;3431;47.966;10.268;2023-05-10T01:00:46;11.60;99.90
6788;DHT22;3431;47.966;10.268;2023-05-10T01:01:09;11.60;99.90
6788;DHT22;3431;47.966;10.268;2023-05-10T01:01:32;11.60;99.90
6788;DHT22;3431;47.966;10.268;2023-05-10T01:01:54;11.60;99.90
6788;DHT22;3431;47.966;10.268;2023-05-10T01:02:17;11.70;99.90
6788;DHT22;3431;47.966;10.268;2023-05-10T01:02:40;11.60;99.90
6788;DHT22;3431;47.966;10.268;2023-05-10T01:03:02;11.60;99.90
6788;DHT22;3431;47.966;10.268;2023-05-10T01:03:25;11.60;99.90
6788;DHT22;3431;47.966;10.268;2023-05-10T01:03:46;11.60;99.90
6788;DHT22;3431;47.966;10.268;2023-05-10T01:04:10;11.60;99.90
6788;DHT22;3431;47.966;10.268;2023-05-10T01:04:33;11.60;99.90
6788;DHT22;3431;47.966;10.268;2023-05-10T01:04:55;11.60;99.90
6788;DHT22;3431;47.966;10.268;2023-05-10T01:05:16;11.60;99.90
6788;DHT22;3431;47.966;10.268;2023-05-10T01:05:38;11.60;99.90
6788;DHT22;3431;47.966;10.268;2023-05-10T01:06:00;11.60;99.90
6788;DHT22;3431;47.966;10.268;2023-05-10T01:06:22;11.60;99.90
6788;DHT22;3431;47.966;10.268;2023-05-10T01:06:43;11.60;99.90
6788;DHT22;3431;47.966;10.268;2023-05-10T01:07:06;11.60;99.90
6788;DHT22;3431;47.966;10.268;2023-05-10T01:07:27;11.60;99.90
6788;DHT22;3431;47.966;10.268;2023-05-10T01:07:50;11.60;99.90
6788;DHT22;3431;47.966;10.268;2023-05-10T01:08:12;11.60;99.90
6788;DHT22;3431;47.966;10.268;2023-05-10T01:08:33;11.50;99.90
6788;DHT22;3431;47.966;10.268;2023-05-10T01:08:55;11.60;99.90
6788;DHT22;3431;47.966;10.268;2023-05-10T01:09:17;11.60;99.90
6788;DHT22;3431;47.966;10.268;2023-05-10T01:09:40;11.60;99.90
6788;DHT22;3431;47.966;10.268;2023-05-10T01:10:01;11.60;99.90
6788;DHT22;3431;47.966;10.268;2023-05-10T01:10:23;11.60;99.90
6788;DHT22;3431;47.966;10.268;2023-05-10T01:10:46;11.60;99.90
6788;DHT22;3431;47.966;10.268;2023-05-10T01:11:10;11.60;99.90
6788;DHT22;3431;47.966;10.268;2023-05-10T01:11:32;11.60;99.90
6788;DHT22;3431;47.966;10.268;2023-05-10T01:11:54;11.60;99.90
6788;DHT22;3431;47.966;10.268;2023-05-10T01:12:17;11.60;99.90
6788;DHT22;3431;47.966;10.268;2023-05-10T01:12:41;11.60;99.90
6788;DHT22;3431;47.966;10.268;2023-05-10T01:13:03;11.60;99.90
6788;DHT22;3431;47.966;10.268;2023-05-10T01:13:31;11.50;99.90
6788;DHT22;3431;47.966;10.268;2023-05-10T01:13:56;11.60;99.90
6788;DHT22;3431;47.966;10.268;2023-05-10T01:14:19;11.60;99.90
6788;DHT22;3431;47.966;10.268;2023-05-10T01:14:41;11.50;99.90
6788;DHT22;3431;47.966;10.268;2023-05-10T01:15:04;11.60;99.90
6788;DHT22;3431;47.966;10.268;2023-05-10T01:15:26;11.60;99.90
6788;DHT22;3431;47.966;10.268;2023-05-10T01:15:48;11.60;99.90
6788;DHT22;3431;47.966;10.268;2023-05-10T01:16:11;11.50;99.90
6788;DHT22;3431;47.966;10.268;2023-05-10T01:16:35;11.60;99.90
6788;DHT22;3431;47.966;10.268;2023-05-10T01:16:58;11.60;99.90
6788;DHT22;3431;47.966;10.268;2023-05-10T01:17:22;11.60;99.90
6788;DHT22;3431;47.966;10.268;2023-05-10T01:17:44;11.60;99.90
6788;DHT22;3431;47.966;10.268;2023-05-10T01:18:08;11.60;99.90
6788;DHT22;3431;47.966;10.268;2023-05-10T01:18:32;11.60;99.90
6788;DHT22;3431;47.966;10.268;2023-05-10T01:18:54;11.60;99.90
6788;DHT22;3431;47.966;10.268;2023-05-10T01:19:20;11.60;99.90
6788;DHT22;3431;47.966;10.268;2023-05-10T01:19:43;11.60;99.90
6788;DHT22;3431;47.966;10.268;2023-05-10T01:20:07;11.60;99.90
6788;DHT22;3431;47.966;10.268;2023-05-10T01:20:36;11.50;99.90
6788;DHT22;3431;47.966;10.268;2023-05-10T01:21:05;11.60;99.90
6788;DHT22;3431;47.966;10.268;2023-05-10T01:21:33;11.50;99.90
6788;DHT22;3431;47.966;10.268;2023-05-10T01:22:04;11.60;99.90
6788;DHT22;3431;47.966;10.268;2023-05-10T01:22:50;11.60;99.90
6788;DHT22;3431;47.966;10.268;2023-05-10T01:23:30;11.60;99.90
6788;DHT22;3431;47.966;10.268;2023-05-10T01:24:09;11.50;99.90
6788;DHT22;3431;47.966;10.268;2023-05-10T01:25:40;11.50;99.90
6788;DHT22;3431;47.966;10.268;2023-05-10T01:26:24;11.50;99.90
6788;DHT22;3431;47.966;10.268;2023-05-10T01:27:28;11.50;99.90
6788;DHT22;3431;47.966;10.268;2023-05-10T01:28:15;11.50;99.90
6788;DHT22;3431;47.966;10.268;2023-05-10T01:28:58;11.50;99.90
6788;DHT22;3431;47.966;10.268;2023-05-10T01:29:47;11.50;99.90
6788;DHT22;3431;47.966;10.268;2023-05-10T01:31:22;11.50;99.90
6788;DHT22;3431;47.966;10.268;2023-05-10T01:32:14;11.50;99.90
6788;DHT22;3431;47.966;10.268;2023-05-10T01:32:43;11.50;99.90
6788;DHT22;3431;47.966;10.268;2023-05-10T01:33:11;11.50;99.90
6788;DHT22;3431;47.966;10.268;2023-05-10T01:33:41;11.50;99.90
6788;DHT22;3431;47.966;10.268;2023-05-10T01:34:09;11.50;99.90
6788;DHT22;3431;47.966;10.268;2023-05-10T01:34:35;11.50;99.90
6788;DHT22;3431;47.966;10.268;2023-05-10T01:35:02;11.50;99.90
6788;DHT22;3431;47.966;10.268;2023-05-10T01:35:30;11.60;99.90
6788;DHT22;3431;47.966;10.268;2023-05-10T01:36:01;11.50;99.90
6788;DHT22;3431;47.966;10.268;2023-05-10T01:36:30;11.50;99.90
6788;DHT22;3431;47.966;10.268;2023-05-10T01:36:58;11.50;99.90
6788;DHT22;3431;47.966;10.268;2023-05-10T01:37:31;11.50;99.90
6788;DHT22;3431;47.966;10.268;2023-05-10T01:38:00;11.50;99.90
6788;DHT22;3431;47.966;10.268;2023-05-10T01:38:42;11.50;99.90
6788;DHT22;3431;47.966;10.268;2023-05-10T01:39:08;11.50;99.90
6788;DHT22;3431;47.966;10.268;2023-05-10T01:39:39;11.50;99.90
6788;DHT22;3431;47.966;10.268;2023-05-10T01:40:13;11.50;99.90
6788;DHT22;3431;47.966;10.268;2023-05-10T01:40:39;11.50;99.90
6788;DHT22;3431;47.966;10.268;2023-05-10T01:41:12;11.50;99.90
6788;DHT22;3431;47.966;10.268;2023-05-10T01:41:44;11.50;99.90
6788;DHT22;3431;47.966;10.268;2023-05-10T01:42:11;11.50;99.90
6788;DHT22;3431;47.966;10.268;2023-05-10T01:42:38;11.50;99.90
6788;DHT22;3431;47.966;10.268;2023-05-10T01:43:03;11.50;99.90
6788;DHT22;3431;47.966;10.268;2023-05-10T01:43:30;11.50;99.90
6788;DHT22;3431;47.966;10.268;2023-05-10T01:43:59;11.50;99.90
6788;DHT22;3431;47.966;10.268;2023-05-10T01:44:27;11.50;99.90
6788;DHT22;3431;47.966;10.268;2023-05-10T01:44:56;11.50;99.90
6788;DHT22;3431;47.966;10.268;2023-05-10T01:45:24;11.50;99.90
6788;DHT22;3431;47.966;10.268;2023-05-10T01:45:56;11.50;99.90
6788;DHT22;3431;47.966;10.268;2023-05-10T01:46:25;11.50;99.90
6788;DHT22;3431;47.966;10.268;2023-05-10T01:46:53;11.50;99.90
6788;DHT22;3431;47.966;10.268;2023-05-10T01:47:26;11.50;99.90
6788;DHT22;3431;47.966;10.268;2023-05-10T01:47:54;11.50;99.90
6788;DHT22;3431;47.966;10.268;2023-05-10T01:48:21;11.50;99.90
6788;DHT22;3431;47.966;10.268;2023-05-10T01:48:48;11.50;99.90
6788;DHT22;3431;47.966;10.268;2023-05-10T01:49:18;11.50;99.90
6788;DHT22;3431;47.966;10.268;2023-05-10T01:49:44;11.50;99.90
6788;DHT22;3431;47.966;10.268;2023-05-10T01:50:11;11.50;99.90
6788;DHT22;3431;47.966;10.268;2023-05-10T01:50:37;11.50;99.90
6788;DHT22;3431;47.966;10.268;2023-05-10T01:51:00;11.50;99.90
6788;DHT22;3431;47.966;10.268;2023-05-10T01:51:24;11.50;99.90
6788;DHT22;3431;47.966;10.268;2023-05-10T01:51:51;11.50;99.90
6788;DHT22;3431;47.966;10.268;2023-05-10T01:52:18;11.50;99.90
6788;DHT22;3431;47.966;10.268;2023-05-10T01:52:42;11.50;99.90
6788;DHT22;3431;47.966;10.268;2023-05-10T01:53:09;11.50;99.90
6788;DHT22;3431;47.966;10.268;2023-05-10T01:53:34;11.50;99.90
6788;DHT22;3431;47.966;10.268;2023-05-10T01:54:00;11.50;99.90
6788;DHT22;3431;47.966;10.268;2023-05-10T01:54:23;11.50;99.90
6788;DHT22;3431;47.966;10.268;2023-05-10T01:54:53;11.50;99.90
6788;DHT22;3431;47.966;10.268;2023-05-10T01:55:16;11.50;99.90
6788;DHT22;3431;47.966;10.268;2023-05-10T01:55:43;11.50;99.90
6788;DHT22;3431;47.966;10.268;2023-05-10T01:56:07;11.50;99.90
6788;DHT22;3431;47.966;10.268;2023-05-10T01:56:33;11.50;99.90
6788;DHT22;3431;47.966;10.268;2023-05-10T01:57:00;11.50;99.90
6788;DHT22;3431;47.966;10.268;2023-05-10T01:57:26;11.50;99.90
6788;DHT22;3431;47.966;10.268;2023-05-10T01:57:51;11.50;99.90
6788;DHT22;3431;47.966;10.268;2023-05-10T01:58:18;11.50;99.90
6788;DHT22;3431;47.966;10.268;2023-05-10T01:58:43;11.50;99.90
6788;DHT22;3431;47.966;10.268;2023-05-10T01:59:13;11.50;99.90
6788;DHT22;3431;47.966;10.268;2023-05-10T01:59:38;11.50;99.90
6788;DHT22;3431;47.966;10.268;2023-05-10T02:00:03;11.50;99.90
6788;DHT22;3431;47.966;10.268;2023-05-10T02:00:36;11.50;99.90
6788;DHT22;3431;47.966;10.268;2023-05-10T02:01:03;11.50;99.90
6788;DHT22;3431;47.966;10.268;2023-05-10T02:01:26;11.50;99.90
6788;DHT22;3431;47.966;10.268;2023-05-10T02:01:49;11.50;99.90
6788;DHT22;3431;47.966;10.268;2023-05-10T02:02:13;11.50;99.90
6788;DHT22;3431;47.966;10.268;2023-05-10T02:02:40;11.50;99.90
6788;DHT22;3431;47.966;10.268;2023-05-10T02:03:06;11.50;99.90
6788;DHT22;3431;47.966;10.268;2023-05-10T02:03:30;11.50;99.90
6788;DHT22;3431;47.966;10.268;2023-05-10T02:03:53;11.50;99.90
6788;DHT22;3431;47.966;10.268;2023-05-10T02:04:19;11.50;99.90
6788;DHT22;3431;47.966;10.268;2023-05-10T02:04:43;11.50;99.90
6788;DHT22;3431;47.966;10.268;2023-05-10T02:05:07;11.50;99.90
6788;DHT22;3431;47.966;10.268;2023-05-10T02:05:30;11.50;99.90
6788;DHT22;3431;47.966;10.268;2023-05-10T02:05:55;11.50;99.90
6788;DHT22;3431;47.966;10.268;2023-05-10T02:06:18;11.50;99.90
6788;DHT22;3431;47.966;10.268;2023-05-10T02:06:42;11.50;99.90
6788;DHT22;3431;47.966;10.268;2023-05-10T02:07:04;11.50;99.90
6788;DHT22;3431;47.966;10.268;2023-05-10T02:07:28;11.40;99.90
6788;DHT22;3431;47.966;10.268;2023-05-10T02:07:51;11.50;99.90
6788;DHT22;3431;47.966;10.268;2023-05-10T02:08:13;11.50;99.90
6788;DHT22;3431;47.966;10.268;2023-05-10T02:08:36;11.50;99.90
6788;DHT22;3431;47.966;10.268;2023-05-10T02:09:00;11.50;99.90
6788;DHT22;3431;47.966;10.268;2023-05-10T02:09:23;11.40;99.90
6788;DHT22;3431;47.966;10.268;2023-05-10T02:09:47;11.40;99.90
6788;DHT22;3431;47.966;10.268;2023-05-10T02:10:10;11.40;99.90
6788;DHT22;3431;47.966;10.268;2023-05-10T02:10:34;11.40;99.90
6788;DHT22;3431;47.966;10.268;2023-05-10T02:10:57;11.50;99.90
6788;DHT22;3431;47.966;10.268;2023-05-10T02:11:20;11.40;99.90
6788;DHT22;3431;47.966;10.268;2023-05-10T02:11:44;11.50;99.90
6788;DHT22;3431;47.966;10.268;2023-05-10T02:12:07;11.40;99.90
6788;DHT22;3431;47.966;10.268;2023-05-10T02:12:30;11.40;99.90
6788;DHT22;3431;47.966;10.268;2023-05-10T02:12:53;11.40;99.90
6788;DHT22;3431;47.966;10.268;2023-05-10T02:13:17;11.40;99.90
6788;DHT22;3431;47.966;10.268;2023-05-10T02:13:42;11.40;99.90
6788;DHT22;3431;47.966;10.268;2023-05-10T02:14:06;11.40;99.90
6788;DHT22;3431;47.966;10.268;2023-05-10T02:14:31;11.40;99.90
6788;DHT22;3431;47.966;10.268;2023-05-10T02:14:53;11.40;99.90
6788;DHT22;3431;47.966;10.268;2023-05-10T02:15:20;11.40;99.90
6788;DHT22;3431;47.966;10.268;2023-05-10T02:15:44;11.40;99.90
6788;DHT22;3431;47.966;10.268;2023-05-10T02:16:08;11.40;99.90
6788;DHT22;3431;47.966;10.268;2023-05-10T02:16:31;11.40;99.90
6788;DHT22;3431;47.966;10.268;2023-05-10T02:16:56;11.40;99.90
6788;DHT22;3431;47.966;10.268;2023-05-10T02:17:18;11.40;99.90
6788;DHT22;3431;47.966;10.268;2023-05-10T02:17:42;11.40;99.90
6788;DHT22;3431;47.966;10.268;2023-05-10T02:18:05;11.40;99.90
6788;DHT22;3431;47.966;10.268;2023-05-10T02:18:27;11.40;99.90
6788;DHT22;3431;47.966;10.268;2023-05-10T02:18:52;11.40;99.90
6788;DHT22;3431;47.966;10.268;2023-05-10T02:19:15;11.40;99.90
6788;DHT22;3431;47.966;10.268;2023-05-10T02:19:40;11.40;99.90
6788;DHT22;3431;47.966;10.268;2023-05-10T02:20:04;11.40;99.90
6788;DHT22;3431;47.966;10.268;2023-05-10T02:20:28;11.40;99.90
6788;DHT22;3431;47.966;10.268;2023-05-10T02:20:52;11.40;99.90
6788;DHT22;3431;47.966;10.268;2023-05-10T02:21:15;11.40;99.90
6788;DHT22;3431;47.966;10.268;2023-05-10T02:21:39;11.40;99.90
6788;DHT22;3431;47.966;10.268;2023-05-10T02:22:02;11.40;99.90
6788;DHT22;3431;47.966;10.268;2023-05-10T02:22:27;11.30;99.90
6788;DHT22;3431;47.966;10.268;2023-05-10T02:22:51;11.40;99.90
6788;DHT22;3431;47.966;10.268;2023-05-10T02:23:14;11.40;99.90
6788;DHT22;3431;47.966;10.268;2023-05-10T02:23:37;11.40;99.90
6788;DHT22;3431;47.966;10.268;2023-05-10T02:24:00;11.40;99.90
6788;DHT22;3431;47.966;10.268;2023-05-10T02:24:25;11.40;99.90
6788;DHT22;3431;47.966;10.268;2023-05-10T02:24:49;11.40;99.90
6788;DHT22;3431;47.966;10.268;2023-05-10T02:25:13;11.40;99.90
6788;DHT22;3431;47.966;10.268;2023-05-10T02:25:36;11.40;99.90
6788;DHT22;3431;47.966;10.268;2023-05-10T02:26:00;11.40;99.90
6788;DHT22;3431;47.966;10.268;2023-05-10T02:26:23;11.40;99.90
6788;DHT22;3431;47.966;10.268;2023-05-10T02:26:47;11.40;99.90
6788;DHT22;3431;47.966;10.268;2023-05-10T02:27:11;11.30;99.90
6788;DHT22;3431;47.966;10.268;2023-05-10T02:27:33;11.40;99.90
6788;DHT22;3431;47.966;10.268;2023-05-10T02:27:57;11.40;99.90
6788;DHT22;3431;47.966;10.268;2023-05-10T02:28:22;11.30;99.90
6788;DHT22;3431;47.966;10.268;2023-05-10T02:28:44;11.30;99.90
6788;DHT22;3431;47.966;10.268;2023-05-10T02:29:06;11.30;99.90
6788;DHT22;3431;47.966;10.268;2023-05-10T02:29:31;11.30;99.90
6788;DHT22;3431;47.966;10.268;2023-05-10T02:29:53;11.30;99.90
6788;DHT22;3431;47.966;10.268;2023-05-10T02:30:17;11.30;99.90
6788;DHT22;3431;47.966;10.268;2023-05-10T02:30:40;11.30;99.90
6788;DHT22;3431;47.966;10.268;2023-05-10T02:31:03;11.30;99.90
6788;DHT22;3431;47.966;10.268;2023-05-10T02:31:26;11.30;99.90
6788;DHT22;3431;47.966;10.268;2023-05-10T02:31:48;11.30;99.90
6788;DHT22;3431;47.966;10.268;2023-05-10T02:32:12;11.30;99.90
6788;DHT22;3431;47.966;10.268;2023-05-10T02:32:35;11.30;99.90
6788;DHT22;3431;47.966;10.268;2023-05-10T02:32:59;11.30;99.90
6788;DHT22;3431;47.966;10.268;2023-05-10T02:33:22;11.30;99.90
6788;DHT22;3431;47.966;10.268;2023-05-10T02:33:45;11.30;99.90
6788;DHT22;3431;47.966;10.268;2023-05-10T02:34:07;11.30;99.90
6788;DHT22;3431;47.966;10.268;2023-05-10T02:34:30;11.30;99.90
6788;DHT22;3431;47.966;10.268;2023-05-10T02:34:52;11.30;99.90
6788;DHT22;3431;47.966;10.268;2023-05-10T02:35:14;11.30;99.90
6788;DHT22;3431;47.966;10.268;2023-05-10T02:35:38;11.30;99.90
6788;DHT22;3431;47.966;10.268;2023-05-10T02:36:01;11.30;99.90
6788;DHT22;3431;47.966;10.268;2023-05-10T02:36:24;11.30;99.90
6788;DHT22;3431;47.966;10.268;2023-05-10T02:36:48;11.30;99.90
6788;DHT22;3431;47.966;10.268;2023-05-10T02:37:11;11.20;99.90